sensor_id;sensor_type;location;lat;lon;timestamp;pressure;altitude;pressure_sealevel;temperature;humidity
64821;BME280;51256;55.654;37.264;2022-09-03T00:02:30;99627.34;;;5.46;78.54
64821;BME280;51256;55.654;37.264;2022-09-03T00:05:34;99629.75;;;5.49;78.70
64821;BME280;51256;55.654;37.264;2022-09-03T00:08:22;99640.53;;;5.46;79.08
64821;BME280;51256;55.654;37.264;2022-09-03T00:13:28;99654.63;;;5.45;79.20
64821;BME280;51256;55.654;37.264;2022-09-03T00:15:56;99653.69;;;5.46;79.34
64821;BME280;51256;55.654;37.264;2022-09-03T00:18:30;99655.47;;;5.45;79.57
64821;BME280;51256;55.654;37.264;2022-09-03T00:21:03;99647.16;;;5.39;79.29
64821;BME280;51256;55.654;37.264;2022-09-03T00:23:35;99652.09;;;5.43;79.45
64821;BME280;51256;55.654;37.264;2022-09-03T00:26:17;99644.09;;;5.32;79.64
64821;BME280;51256;55.654;37.264;2022-09-03T00:28:52;99648.41;;;5.33;79.48
64821;BME280;51256;55.654;37.264;2022-09-03T00:31:34;99649.34;;;5.32;79.33
64821;BME280;51256;55.654;37.264;2022-09-03T00:34:36;99667.69;;;5.33;79.58
64821;BME280;51256;55.654;37.264;2022-09-03T00:37:06;99662.09;;;5.25;79.79
64821;BME280;51256;55.654;37.264;2022-09-03T00:39:32;99665.69;;;5.24;79.46
64821;BME280;51256;55.654;37.264;2022-09-03T00:52:33;99680.00;;;5.20;79.65
64821;BME280;51256;55.654;37.264;2022-09-03T00:58:19;99685.56;;;5.15;79.56
64821;BME280;51256;55.654;37.264;2022-09-03T01:00:50;99683.47;;;5.08;79.06
64821;BME280;51256;55.654;37.264;2022-09-03T01:06:26;99684.00;;;5.13;79.21
64821;BME280;51256;55.654;37.264;2022-09-03T01:09:13;99676.63;;;5.05;79.30
64821;BME280;51256;55.654;37.264;2022-09-03T01:12:02;99675.97;;;5.01;79.15
64821;BME280;51256;55.654;37.264;2022-09-03T01:20:03;99681.13;;;5.03;78.87
64821;BME280;51256;55.654;37.264;2022-09-03T01:23:12;99681.78;;;5.07;78.84
64821;BME280;51256;55.654;37.264;2022-09-03T01:28:47;99696.22;;;5.01;79.00
64821;BME280;51256;55.654;37.264;2022-09-03T01:34:29;99678.16;;;4.82;79.21
64821;BME280;51256;55.654;37.264;2022-09-03T01:37:20;99695.03;;;4.92;79.18
64821;BME280;51256;55.654;37.264;2022-09-03T01:45:52;99708.66;;;4.84;79.56
64821;BME280;51256;55.654;37.264;2022-09-03T01:50:55;99704.97;;;4.74;79.43
64821;BME280;51256;55.654;37.264;2022-09-03T01:59:08;99717.72;;;4.80;79.72
64821;BME280;51256;55.654;37.264;2022-09-03T02:01:41;99708.88;;;4.68;79.83
64821;BME280;51256;55.654;37.264;2022-09-03T02:04:34;99722.25;;;4.78;80.26
64821;BME280;51256;55.654;37.264;2022-09-03T02:07:01;99732.84;;;4.77;80.38
64821;BME280;51256;55.654;37.264;2022-09-03T02:09:27;99728.53;;;4.76;80.33
64821;BME280;51256;55.654;37.264;2022-09-03T02:12:02;99726.94;;;4.73;80.28
64821;BME280;51256;55.654;37.264;2022-09-03T02:14:32;99735.59;;;4.75;80.78
64821;BME280;51256;55.654;37.264;2022-09-03T02:16:59;99730.63;;;4.70;80.42
64821;BME280;51256;55.654;37.264;2022-09-03T02:19:27;99732.72;;;4.65;80.76
64821;BME280;51256;55.654;37.264;2022-09-03T02:21:55;99735.34;;;4.65;81.06
64821;BME280;51256;55.654;37.264;2022-09-03T02:24:23;99737.03;;;4.66;81.28
64821;BME280;51256;55.654;37.264;2022-09-03T02:26:48;99737.31;;;4.62;80.90
64821;BME280;51256;55.654;37.264;2022-09-03T02:29:15;99748.59;;;4.64;81.13
64821;BME280;51256;55.654;37.264;2022-09-03T02:31:42;99747.00;;;4.61;80.97
64821;BME280;51256;55.654;37.264;2022-09-03T02:34:08;99744.66;;;4.57;80.94
64821;BME280;51256;55.654;37.264;2022-09-03T02:36:36;99741.31;;;4.54;80.66
64821;BME280;51256;55.654;37.264;2022-09-03T02:39:03;99745.53;;;4.57;80.58
64821;BME280;51256;55.654;37.264;2022-09-03T02:41:29;99732.13;;;4.47;80.46
64821;BME280;51256;55.654;37.264;2022-09-03T02:46:37;99752.44;;;4.58;81.11
64821;BME280;51256;55.654;37.264;2022-09-03T02:49:04;99750.19;;;4.66;80.62
64821;BME280;51256;55.654;37.264;2022-09-03T02:51:34;99755.47;;;4.79;79.95
64821;BME280;51256;55.654;37.264;2022-09-03T02:54:00;99757.63;;;4.87;79.70
64821;BME280;51256;55.654;37.264;2022-09-03T02:56:26;99752.28;;;4.89;79.54
64821;BME280;51256;55.654;37.264;2022-09-03T02:58:52;99756.66;;;4.88;79.35
64821;BME280;51256;55.654;37.264;2022-09-03T03:01:18;99755.84;;;4.87;79.19
64821;BME280;51256;55.654;37.264;2022-09-03T03:03:44;99761.28;;;4.84;79.67
64821;BME280;51256;55.654;37.264;2022-09-03T03:06:10;99763.09;;;4.84;79.75
64821;BME280;51256;55.654;37.264;2022-09-03T03:08:36;99757.28;;;4.79;79.66
64821;BME280;51256;55.654;37.264;2022-09-03T03:11:02;99742.28;;;4.66;79.11
64821;BME280;51256;55.654;37.264;2022-09-03T03:13:29;99754.28;;;4.70;79.35
64821;BME280;51256;55.654;37.264;2022-09-03T03:15:59;99763.78;;;4.73;79.60
64821;BME280;51256;55.654;37.264;2022-09-03T03:18:25;99756.19;;;4.68;79.98
64821;BME280;51256;55.654;37.264;2022-09-03T03:20:52;99759.91;;;4.79;79.61
64821;BME280;51256;55.654;37.264;2022-09-03T03:23:19;99766.97;;;4.78;79.72
64821;BME280;51256;55.654;37.264;2022-09-03T03:25:44;99773.81;;;4.81;79.75
64821;BME280;51256;55.654;37.264;2022-09-03T03:28:10;99765.34;;;4.76;79.99
64821;BME280;51256;55.654;37.264;2022-09-03T03:30:38;99779.16;;;4.79;79.83
64821;BME280;51256;55.654;37.264;2022-09-03T03:33:05;99788.84;;;4.79;80.13
64821;BME280;51256;55.654;37.264;2022-09-03T03:35:31;99775.81;;;4.77;80.33
64821;BME280;51256;55.654;37.264;2022-09-03T03:37:58;99767.44;;;4.70;80.26
64821;BME280;51256;55.654;37.264;2022-09-03T03:40:24;99776.91;;;4.73;80.21
64821;BME280;51256;55.654;37.264;2022-09-03T03:42:49;99789.69;;;4.79;80.56
64821;BME280;51256;55.654;37.264;2022-09-03T03:45:15;99780.97;;;4.79;80.24
64821;BME280;51256;55.654;37.264;2022-09-03T03:47:40;99795.47;;;4.84;80.24
64821;BME280;51256;55.654;37.264;2022-09-03T03:50:06;99783.09;;;4.86;79.93
64821;BME280;51256;55.654;37.264;2022-09-03T03:52:32;99787.94;;;4.93;80.08
64821;BME280;51256;55.654;37.264;2022-09-03T03:54:57;99789.00;;;4.90;79.97
64821;BME280;51256;55.654;37.264;2022-09-03T03:57:23;99784.28;;;4.95;80.22
64821;BME280;51256;55.654;37.264;2022-09-03T03:59:49;99791.59;;;5.05;79.92
64821;BME280;51256;55.654;37.264;2022-09-03T04:02:15;99789.69;;;5.07;79.82
64821;BME280;51256;55.654;37.264;2022-09-03T04:04:41;99793.78;;;5.11;80.06
64821;BME280;51256;55.654;37.264;2022-09-03T04:07:07;99798.66;;;5.17;79.96
64821;BME280;51256;55.654;37.264;2022-09-03T04:09:33;99802.56;;;5.24;79.94
64821;BME280;51256;55.654;37.264;2022-09-03T04:11:59;99805.19;;;5.24;79.62
64821;BME280;51256;55.654;37.264;2022-09-03T04:14:25;99813.75;;;5.28;79.63
64821;BME280;51256;55.654;37.264;2022-09-03T04:16:52;99810.69;;;5.34;79.33
64821;BME280;51256;55.654;37.264;2022-09-03T04:19:17;99812.28;;;5.36;79.52
64821;BME280;51256;55.654;37.264;2022-09-03T04:21:43;99811.88;;;5.43;79.30
64821;BME280;51256;55.654;37.264;2022-09-03T04:24:09;99803.97;;;5.43;79.38
64821;BME280;51256;55.654;37.264;2022-09-03T04:26:35;99818.53;;;5.48;78.57
64821;BME280;51256;55.654;37.264;2022-09-03T04:29:03;99819.91;;;5.54;79.02
64821;BME280;51256;55.654;37.264;2022-09-03T04:31:29;99814.75;;;5.52;78.81
64821;BME280;51256;55.654;37.264;2022-09-03T04:33:55;99809.66;;;5.49;78.33
64821;BME280;51256;55.654;37.264;2022-09-03T04:36:23;99812.28;;;5.49;78.78
64821;BME280;51256;55.654;37.264;2022-09-03T04:38:51;99819.16;;;5.52;78.75
64821;BME280;51256;55.654;37.264;2022-09-03T04:41:22;99816.31;;;5.55;78.39
64821;BME280;51256;55.654;37.264;2022-09-03T04:43:53;99824.03;;;5.71;78.36
64821;BME280;51256;55.654;37.264;2022-09-03T04:46:20;99818.66;;;5.73;78.44
64821;BME280;51256;55.654;37.264;2022-09-03T04:48:51;99815.81;;;5.76;78.45
64821;BME280;51256;55.654;37.264;2022-09-03T04:51:19;99815.91;;;5.87;78.29
64821;BME280;51256;55.654;37.264;2022-09-03T04:53:46;99831.63;;;5.89;78.18
64821;BME280;51256;55.654;37.264;2022-09-03T04:56:21;99821.28;;;5.85;77.89
64821;BME280;51256;55.654;37.264;2022-09-03T04:58:52;99824.56;;;5.89;77.78
64821;BME280;51256;55.654;37.264;2022-09-03T05:01:19;99827.59;;;5.96;77.82
64821;BME280;51256;55.654;37.264;2022-09-03T05:03:45;99829.25;;;5.98;77.63
64821;BME280;51256;55.654;37.264;2022-09-03T05:06:11;99831.44;;;6.05;77.63
64821;BME280;51256;55.654;37.264;2022-09-03T05:08:37;99827.84;;;6.06;77.61
64821;BME280;51256;55.654;37.264;2022-09-03T05:11:04;99837.78;;;6.15;77.19
64821;BME280;51256;55.654;37.264;2022-09-03T05:13:31;99851.16;;;6.25;77.33
64821;BME280;51256;55.654;37.264;2022-09-03T05:16:08;99853.97;;;6.35;77.91
64821;BME280;51256;55.654;37.264;2022-09-03T05:18:35;99840.78;;;6.35;77.60
64821;BME280;51256;55.654;37.264;2022-09-03T05:21:06;99845.44;;;6.44;76.85
64821;BME280;51256;55.654;37.264;2022-09-03T05:23:37;99858.19;;;6.50;76.89
64821;BME280;51256;55.654;37.264;2022-09-03T05:26:05;99847.75;;;6.48;77.15
64821;BME280;51256;55.654;37.264;2022-09-03T05:28:34;99851.75;;;6.54;77.28
64821;BME280;51256;55.654;37.264;2022-09-03T05:31:11;99853.19;;;6.58;77.00
64821;BME280;51256;55.654;37.264;2022-09-03T05:33:39;99852.38;;;6.58;76.66
64821;BME280;51256;55.654;37.264;2022-09-03T05:36:08;99867.13;;;6.60;76.41
64821;BME280;51256;55.654;37.264;2022-09-03T05:38:34;99855.84;;;6.58;76.49
64821;BME280;51256;55.654;37.264;2022-09-03T05:41:01;99856.03;;;6.68;76.31
64821;BME280;51256;55.654;37.264;2022-09-03T05:43:28;99855.47;;;6.76;76.01
64821;BME280;51256;55.654;37.264;2022-09-03T05:46:10;99859.50;;;6.81;75.66
64821;BME280;51256;55.654;37.264;2022-09-03T05:48:37;99860.63;;;6.90;75.54
64821;BME280;51256;55.654;37.264;2022-09-03T05:51:05;99871.25;;;7.02;75.31
64821;BME280;51256;55.654;37.264;2022-09-03T05:53:34;99871.53;;;7.10;75.50
64821;BME280;51256;55.654;37.264;2022-09-03T05:56:02;99864.84;;;7.17;75.55
64821;BME280;51256;55.654;37.264;2022-09-03T05:58:36;99876.44;;;7.27;74.90
64821;BME280;51256;55.654;37.264;2022-09-03T06:01:33;99876.38;;;7.40;74.52
64821;BME280;51256;55.654;37.264;2022-09-03T06:04:02;99870.50;;;7.48;74.64
64821;BME280;51256;55.654;37.264;2022-09-03T06:06:32;99874.25;;;7.57;74.34
64821;BME280;51256;55.654;37.264;2022-09-03T06:09:03;99876.81;;;7.70;74.46
64821;BME280;51256;55.654;37.264;2022-09-03T06:11:30;99869.03;;;7.79;74.36
64821;BME280;51256;55.654;37.264;2022-09-03T06:13:58;99870.38;;;7.85;74.04
64821;BME280;51256;55.654;37.264;2022-09-03T06:16:29;99871.13;;;7.99;73.89
64821;BME280;51256;55.654;37.264;2022-09-03T06:18:55;99870.78;;;8.03;72.99
64821;BME280;51256;55.654;37.264;2022-09-03T06:21:21;99861.63;;;8.07;73.23
64821;BME280;51256;55.654;37.264;2022-09-03T06:23:52;99878.03;;;8.13;72.16
64821;BME280;51256;55.654;37.264;2022-09-03T06:26:18;99873.44;;;8.15;72.38
64821;BME280;51256;55.654;37.264;2022-09-03T06:28:45;99873.31;;;8.16;72.83
64821;BME280;51256;55.654;37.264;2022-09-03T06:31:14;99884.03;;;8.26;72.28
64821;BME280;51256;55.654;37.264;2022-09-03T06:33:40;99877.16;;;8.35;71.50
64821;BME280;51256;55.654;37.264;2022-09-03T06:36:09;99870.81;;;8.49;71.14
64821;BME280;51256;55.654;37.264;2022-09-03T06:38:36;99884.06;;;8.60;70.28
64821;BME280;51256;55.654;37.264;2022-09-03T06:41:05;99887.22;;;8.65;69.89
64821;BME280;51256;55.654;37.264;2022-09-03T06:43:32;99879.75;;;8.70;69.69
64821;BME280;51256;55.654;37.264;2022-09-03T06:45:59;99885.97;;;8.81;69.78
64821;BME280;51256;55.654;37.264;2022-09-03T06:48:26;99885.50;;;8.87;68.32
64821;BME280;51256;55.654;37.264;2022-09-03T06:51:03;99890.78;;;8.87;68.10
64821;BME280;51256;55.654;37.264;2022-09-03T06:53:34;99897.50;;;8.91;67.76
64821;BME280;51256;55.654;37.264;2022-09-03T06:56:02;99858.66;;;8.91;67.19
64821;BME280;51256;55.654;37.264;2022-09-03T06:58:34;99889.91;;;9.09;67.15
64821;BME280;51256;55.654;37.264;2022-09-03T07:01:07;99889.97;;;9.19;66.63
64821;BME280;51256;55.654;37.264;2022-09-03T07:03:37;99893.94;;;9.24;66.49
64821;BME280;51256;55.654;37.264;2022-09-03T07:06:03;99890.94;;;9.29;65.98
64821;BME280;51256;55.654;37.264;2022-09-03T07:08:30;99877.78;;;9.28;64.96
64821;BME280;51256;55.654;37.264;2022-09-03T07:10:58;99880.53;;;9.37;65.22
64821;BME280;51256;55.654;37.264;2022-09-03T07:13:24;99905.19;;;9.49;65.16
64821;BME280;51256;55.654;37.264;2022-09-03T07:16:12;99907.56;;;9.52;64.54
64821;BME280;51256;55.654;37.264;2022-09-03T07:18:38;99877.50;;;9.42;64.51
64821;BME280;51256;55.654;37.264;2022-09-03T07:21:07;99892.72;;;9.61;64.86
64821;BME280;51256;55.654;37.264;2022-09-03T07:23:34;99896.09;;;9.63;64.54
64821;BME280;51256;55.654;37.264;2022-09-03T07:26:03;99887.78;;;9.68;64.77
64821;BME280;51256;55.654;37.264;2022-09-03T07:28:30;99908.41;;;9.85;64.61
64821;BME280;51256;55.654;37.264;2022-09-03T07:31:05;99893.09;;;9.89;63.03
64821;BME280;51256;55.654;37.264;2022-09-03T07:33:31;99902.31;;;9.95;62.55
64821;BME280;51256;55.654;37.264;2022-09-03T07:36:07;99903.34;;;10.03;62.44
64821;BME280;51256;55.654;37.264;2022-09-03T07:38:34;99887.56;;;10.02;62.14
64821;BME280;51256;55.654;37.264;2022-09-03T07:41:02;99900.69;;;10.25;62.69
64821;BME280;51256;55.654;37.264;2022-09-03T07:43:31;99868.19;;;10.32;62.26
64821;BME280;51256;55.654;37.264;2022-09-03T07:45:58;99905.41;;;10.42;60.69
64821;BME280;51256;55.654;37.264;2022-09-03T07:48:23;99905.47;;;10.52;59.89
64821;BME280;51256;55.654;37.264;2022-09-03T07:50:49;99888.28;;;10.56;60.56
64821;BME280;51256;55.654;37.264;2022-09-03T07:53:15;99900.53;;;10.78;59.88
64821;BME280;51256;55.654;37.264;2022-09-03T07:55:42;99884.06;;;10.84;59.52
64821;BME280;51256;55.654;37.264;2022-09-03T07:58:08;99890.41;;;11.13;59.33
64821;BME280;51256;55.654;37.264;2022-09-03T08:00:37;99891.00;;;11.36;59.16
64821;BME280;51256;55.654;37.264;2022-09-03T08:03:02;99894.09;;;11.51;58.87
64821;BME280;51256;55.654;37.264;2022-09-03T08:05:33;99862.59;;;11.66;57.31
64821;BME280;51256;55.654;37.264;2022-09-03T08:08:01;99890.72;;;11.78;57.39
64821;BME280;51256;55.654;37.264;2022-09-03T08:10:27;99891.00;;;11.75;57.08
64821;BME280;51256;55.654;37.264;2022-09-03T08:12:55;99898.56;;;11.80;56.69
64821;BME280;51256;55.654;37.264;2022-09-03T08:15:24;99896.44;;;11.93;56.46
64821;BME280;51256;55.654;37.264;2022-09-03T08:17:50;99900.53;;;12.07;55.83
64821;BME280;51256;55.654;37.264;2022-09-03T08:20:16;99888.19;;;12.06;54.56
64821;BME280;51256;55.654;37.264;2022-09-03T08:22:42;99873.91;;;11.88;54.79
64821;BME280;51256;55.654;37.264;2022-09-03T08:25:08;99891.41;;;11.90;54.00
64821;BME280;51256;55.654;37.264;2022-09-03T08:27:33;99889.88;;;11.78;53.85
64821;BME280;51256;55.654;37.264;2022-09-03T08:29:59;99875.19;;;11.74;53.47
64821;BME280;51256;55.654;37.264;2022-09-03T08:32:24;99863.16;;;11.79;53.39
64821;BME280;51256;55.654;37.264;2022-09-03T08:34:50;99896.03;;;11.88;52.13
64821;BME280;51256;55.654;37.264;2022-09-03T08:37:16;99879.69;;;11.73;51.95
64821;BME280;51256;55.654;37.264;2022-09-03T08:39:43;99873.25;;;11.66;51.81
64821;BME280;51256;55.654;37.264;2022-09-03T08:42:36;99891.69;;;11.67;51.18
64821;BME280;51256;55.654;37.264;2022-09-03T08:45:07;99887.25;;;11.68;51.19
64821;BME280;51256;55.654;37.264;2022-09-03T08:52:59;99881.06;;;11.97;50.33
64821;BME280;51256;55.654;37.264;2022-09-03T08:55:30;99862.44;;;11.97;49.94
64821;BME280;51256;55.654;37.264;2022-09-03T08:58:02;99874.53;;;12.29;49.49
64821;BME280;51256;55.654;37.264;2022-09-03T09:14:40;99877.50;;;13.37;46.29
64821;BME280;51256;55.654;37.264;2022-09-03T09:23:36;99862.63;;;13.53;45.13
64821;BME280;51256;55.654;37.264;2022-09-03T09:26:09;99846.38;;;13.64;44.65
64821;BME280;51256;55.654;37.264;2022-09-03T09:28:37;99855.81;;;13.76;44.06
64821;BME280;51256;55.654;37.264;2022-09-03T09:31:05;99865.41;;;13.87;43.73
64821;BME280;51256;55.654;37.264;2022-09-03T09:33:32;99858.50;;;14.03;43.80
64821;BME280;51256;55.654;37.264;2022-09-03T09:36:00;99863.81;;;14.29;43.41
64821;BME280;51256;55.654;37.264;2022-09-03T09:38:32;99865.53;;;14.65;42.75
64821;BME280;51256;55.654;37.264;2022-09-03T09:41:19;99852.69;;;14.42;43.52
64821;BME280;51256;55.654;37.264;2022-09-03T09:43:46;99853.03;;;14.39;43.37
64821;BME280;51256;55.654;37.264;2022-09-03T09:46:20;99846.47;;;14.33;43.72
64821;BME280;51256;55.654;37.264;2022-09-03T09:51:23;99858.03;;;14.34;44.11
64821;BME280;51256;55.654;37.264;2022-09-03T09:56:41;99851.03;;;14.67;42.88
64821;BME280;51256;55.654;37.264;2022-09-03T09:59:10;99859.22;;;14.82;42.66
64821;BME280;51256;55.654;37.264;2022-09-03T10:01:41;99846.91;;;14.81;42.43
64821;BME280;51256;55.654;37.264;2022-09-03T10:06:35;99828.00;;;14.83;42.47
64821;BME280;51256;55.654;37.264;2022-09-03T10:09:22;99850.69;;;14.70;42.08
64821;BME280;51256;55.654;37.264;2022-09-03T10:14:37;99853.16;;;14.29;42.30
64821;BME280;51256;55.654;37.264;2022-09-03T10:17:51;99858.72;;;14.44;42.32
64821;BME280;51256;55.654;37.264;2022-09-03T10:28:08;99858.56;;;14.11;41.90
64821;BME280;51256;55.654;37.264;2022-09-03T10:31:01;99877.38;;;14.09;42.12
64821;BME280;51256;55.654;37.264;2022-09-03T10:33:34;99856.78;;;13.93;42.66
64821;BME280;51256;55.654;37.264;2022-09-03T10:36:12;99859.28;;;13.95;42.52
64821;BME280;51256;55.654;37.264;2022-09-03T10:38:41;99850.94;;;13.98;41.98
64821;BME280;51256;55.654;37.264;2022-09-03T10:41:32;99846.13;;;14.02;42.29
64821;BME280;51256;55.654;37.264;2022-09-03T10:44:14;99861.06;;;14.13;41.49
64821;BME280;51256;55.654;37.264;2022-09-03T10:47:06;99859.00;;;14.33;41.06
64821;BME280;51256;55.654;37.264;2022-09-03T10:52:16;99852.59;;;14.52;40.61
64821;BME280;51256;55.654;37.264;2022-09-03T10:54:54;99855.88;;;14.72;40.12
64821;BME280;51256;55.654;37.264;2022-09-03T10:57:28;99870.75;;;14.74;39.91
64821;BME280;51256;55.654;37.264;2022-09-03T11:00:10;99862.06;;;14.81;40.17
64821;BME280;51256;55.654;37.264;2022-09-03T11:06:33;99876.41;;;14.71;39.55
64821;BME280;51256;55.654;37.264;2022-09-03T11:11:26;99848.38;;;14.41;42.55
64821;BME280;51256;55.654;37.264;2022-09-03T11:14:08;99837.22;;;13.85;44.29
64821;BME280;51256;55.654;37.264;2022-09-03T11:16:40;99838.25;;;13.48;44.82
64821;BME280;51256;55.654;37.264;2022-09-03T11:19:17;99860.56;;;13.46;44.83
64821;BME280;51256;55.654;37.264;2022-09-03T11:21:45;99845.69;;;13.62;43.35
64821;BME280;51256;55.654;37.264;2022-09-03T11:24:23;99856.97;;;13.74;42.55
64821;BME280;51256;55.654;37.264;2022-09-03T11:30:03;99834.47;;;13.76;42.11
64821;BME280;51256;55.654;37.264;2022-09-03T11:32:57;99833.66;;;13.58;42.50
64821;BME280;51256;55.654;37.264;2022-09-03T11:35:38;99830.75;;;13.33;42.99
64821;BME280;51256;55.654;37.264;2022-09-03T11:47:36;99818.34;;;13.60;43.67
64821;BME280;51256;55.654;37.264;2022-09-03T11:49:52;99814.72;;;13.69;43.78
64821;BME280;51256;55.654;37.264;2022-09-03T11:52:30;99807.97;;;13.83;43.37
64821;BME280;51256;55.654;37.264;2022-09-03T11:55:06;99801.72;;;13.92;43.31
64821;BME280;51256;55.654;37.264;2022-09-03T11:57:39;99794.34;;;13.86;43.44
64821;BME280;51256;55.654;37.264;2022-09-03T12:00:16;99799.66;;;14.13;43.02
64821;BME280;51256;55.654;37.264;2022-09-03T12:03:01;99804.44;;;14.35;42.61
64821;BME280;51256;55.654;37.264;2022-09-03T12:18:24;99792.28;;;15.75;40.96
64821;BME280;51256;55.654;37.264;2022-09-03T12:26:03;99783.13;;;15.19;41.33
64821;BME280;51256;55.654;37.264;2022-09-03T12:28:29;99797.66;;;15.17;41.58
64821;BME280;51256;55.654;37.264;2022-09-03T12:31:06;99794.16;;;15.33;41.42
64821;BME280;51256;55.654;37.264;2022-09-03T12:33:46;99775.28;;;15.43;40.90
64821;BME280;51256;55.654;37.264;2022-09-03T12:36:13;99791.66;;;15.48;41.41
64821;BME280;51256;55.654;37.264;2022-09-03T12:38:38;99773.44;;;15.27;41.99
64821;BME280;51256;55.654;37.264;2022-09-03T12:41:04;99772.25;;;15.04;42.76
64821;BME280;51256;55.654;37.264;2022-09-03T12:43:30;99766.72;;;14.81;43.31
64821;BME280;51256;55.654;37.264;2022-09-03T12:45:55;99778.88;;;14.75;43.46
64821;BME280;51256;55.654;37.264;2022-09-03T12:48:21;99756.97;;;14.64;43.75
64821;BME280;51256;55.654;37.264;2022-09-03T12:51:00;99749.31;;;14.69;43.47
64821;BME280;51256;55.654;37.264;2022-09-03T12:53:28;99758.66;;;14.73;43.80
64821;BME280;51256;55.654;37.264;2022-09-03T12:56:04;99752.00;;;14.85;43.30
64821;BME280;51256;55.654;37.264;2022-09-03T13:02:01;99750.50;;;14.91;42.71
64821;BME280;51256;55.654;37.264;2022-09-03T13:04:32;99742.75;;;14.63;42.93
64821;BME280;51256;55.654;37.264;2022-09-03T13:09:37;99732.84;;;14.47;43.39
64821;BME280;51256;55.654;37.264;2022-09-03T13:12:06;99749.94;;;14.63;44.00
64821;BME280;51256;55.654;37.264;2022-09-03T13:14:42;99764.53;;;14.93;43.43
64821;BME280;51256;55.654;37.264;2022-09-03T13:20:18;99767.19;;;14.77;43.79
64821;BME280;51256;55.654;37.264;2022-09-03T13:40:02;99739.84;;;15.24;42.37
64821;BME280;51256;55.654;37.264;2022-09-03T13:42:35;99745.03;;;15.17;42.48
64821;BME280;51256;55.654;37.264;2022-09-03T13:45:49;99737.97;;;15.08;42.13
64821;BME280;51256;55.654;37.264;2022-09-03T13:48:19;99731.47;;;14.94;41.58
64821;BME280;51256;55.654;37.264;2022-09-03T13:57:32;99715.81;;;15.88;41.02
64821;BME280;51256;55.654;37.264;2022-09-03T14:00:08;99714.16;;;15.87;40.47
64821;BME280;51256;55.654;37.264;2022-09-03T14:08:24;99712.38;;;15.55;40.95
64821;BME280;51256;55.654;37.264;2022-09-03T14:11:01;99735.31;;;15.33;41.32
64821;BME280;51256;55.654;37.264;2022-09-03T14:13:51;99725.47;;;15.25;41.50
64821;BME280;51256;55.654;37.264;2022-09-03T14:19:18;99705.34;;;15.54;41.45
64821;BME280;51256;55.654;37.264;2022-09-03T14:21:51;99707.84;;;15.64;41.36
64821;BME280;51256;55.654;37.264;2022-09-03T14:26:58;99713.88;;;15.41;41.89
64821;BME280;51256;55.654;37.264;2022-09-03T14:29:27;99712.06;;;15.33;41.88
64821;BME280;51256;55.654;37.264;2022-09-03T14:38:06;99707.06;;;14.97;42.23
64821;BME280;51256;55.654;37.264;2022-09-03T14:46:05;99717.34;;;14.59;45.58
64821;BME280;51256;55.654;37.264;2022-09-03T14:48:57;99728.44;;;14.21;48.24
64821;BME280;51256;55.654;37.264;2022-09-03T14:51:48;99724.91;;;15.54;48.66
64821;BME280;51256;55.654;37.264;2022-09-03T14:54:33;99703.59;;;18.68;44.36
64821;BME280;51256;55.654;37.264;2022-09-03T15:05:40;99704.53;;;24.58;38.31
64821;BME280;51256;55.654;37.264;2022-09-03T15:08:16;99709.06;;;25.30;37.20
64821;BME280;51256;55.654;37.264;2022-09-03T15:10:54;99714.19;;;25.50;37.12
64821;BME280;51256;55.654;37.264;2022-09-03T15:13:26;99703.44;;;25.55;36.63
64821;BME280;51256;55.654;37.264;2022-09-03T15:16:19;99691.50;;;24.79;37.32
64821;BME280;51256;55.654;37.264;2022-09-03T15:30:10;99694.16;;;23.43;38.81
64821;BME280;51256;55.654;37.264;2022-09-03T15:32:45;99689.63;;;22.87;39.03
64821;BME280;51256;55.654;37.264;2022-09-03T15:37:46;99686.22;;;21.28;41.16
64821;BME280;51256;55.654;37.264;2022-09-03T15:43:16;99683.31;;;17.09;49.26
64821;BME280;51256;55.654;37.264;2022-09-03T15:56:26;99690.13;;;14.55;54.75
64821;BME280;51256;55.654;37.264;2022-09-03T15:59:14;99687.59;;;14.37;54.91
64821;BME280;51256;55.654;37.264;2022-09-03T16:01:53;99677.53;;;14.15;55.00
64821;BME280;51256;55.654;37.264;2022-09-03T16:04:39;99681.50;;;14.10;55.62
64821;BME280;51256;55.654;37.264;2022-09-03T16:10:15;99692.16;;;14.02;55.63
64821;BME280;51256;55.654;37.264;2022-09-03T16:15:45;99680.34;;;13.70;56.83
64821;BME280;51256;55.654;37.264;2022-09-03T16:18:32;99695.34;;;13.71;57.22
64821;BME280;51256;55.654;37.264;2022-09-03T16:21:25;99680.94;;;13.56;57.77
64821;BME280;51256;55.654;37.264;2022-09-03T16:24:02;99695.03;;;13.48;58.50
64821;BME280;51256;55.654;37.264;2022-09-03T16:26:34;99672.75;;;13.31;58.88
64821;BME280;51256;55.654;37.264;2022-09-03T16:29:11;99686.03;;;13.41;59.44
64821;BME280;51256;55.654;37.264;2022-09-03T16:37:26;99689.84;;;13.38;59.67
64821;BME280;51256;55.654;37.264;2022-09-03T16:39:55;99690.88;;;13.45;60.07
64821;BME280;51256;55.654;37.264;2022-09-03T16:45:27;99695.03;;;13.48;59.22
64821;BME280;51256;55.654;37.264;2022-09-03T16:56:14;99713.66;;;13.22;59.48
64821;BME280;51256;55.654;37.264;2022-09-03T17:04:13;99715.34;;;13.41;59.33
64821;BME280;51256;55.654;37.264;2022-09-03T17:13:06;99715.09;;;13.52;58.23
64821;BME280;51256;55.654;37.264;2022-09-03T17:15:34;99725.44;;;13.55;57.74
64821;BME280;51256;55.654;37.264;2022-09-03T17:18:25;99731.34;;;13.41;57.06
64821;BME280;51256;55.654;37.264;2022-09-03T17:26:11;99704.47;;;12.98;57.90
64821;BME280;51256;55.654;37.264;2022-09-03T17:31:47;99723.47;;;12.95;58.39
64821;BME280;51256;55.654;37.264;2022-09-03T17:53:55;99727.72;;;12.70;58.74
64821;BME280;51256;55.654;37.264;2022-09-03T17:56:32;99715.41;;;12.69;59.16
64821;BME280;51256;55.654;37.264;2022-09-03T18:02:27;99734.19;;;13.03;59.98
64821;BME280;51256;55.654;37.264;2022-09-03T18:15:53;99703.50;;;12.63;60.46
64821;BME280;51256;55.654;37.264;2022-09-03T18:18:37;99704.19;;;12.47;60.80
64821;BME280;51256;55.654;37.264;2022-09-03T18:21:11;99688.63;;;12.24;61.11